sensor_id;sensor_type;location;lat;lon;timestamp;P1;durP1;ratioP1;P2;durP2;ratioP2
9449;SDS011;4763;48.370;10.874;2023-07-30T00:02:19;2.83;;;2.10;;
9449;SDS011;4763;48.370;10.874;2023-07-30T00:04:45;2.07;;;1.80;;
9449;SDS011;4763;48.370;10.874;2023-07-30T00:07:13;2.93;;;1.63;;
9449;SDS011;4763;48.370;10.874;2023-07-30T00:09:40;3.20;;;1.77;;
9449;SDS011;4763;48.370;10.874;2023-07-30T00:12:07;2.90;;;1.70;;
9449;SDS011;4763;48.370;10.874;2023-07-30T00:14:36;2.30;;;2.10;;
9449;SDS011;4763;48.370;10.874;2023-07-30T00:17:03;1.80;;;1.70;;
9449;SDS011;4763;48.370;10.874;2023-07-30T00:19:31;3.40;;;1.80;;
9449;SDS011;4763;48.370;10.874;2023-07-30T00:21:58;2.03;;;1.70;;
9449;SDS011;4763;48.370;10.874;2023-07-30T00:24:25;2.97;;;2.07;;
9449;SDS011;4763;48.370;10.874;2023-07-30T00:26:52;2.93;;;1.80;;
9449;SDS011;4763;48.370;10.874;2023-07-30T00:29:18;7.30;;;1.70;;
9449;SDS011;4763;48.370;10.874;2023-07-30T00:31:46;3.20;;;1.73;;
9449;SDS011;4763;48.370;10.874;2023-07-30T00:34:13;2.13;;;1.80;;
9449;SDS011;4763;48.370;10.874;2023-07-30T00:36:40;2.40;;;1.87;;
9449;SDS011;4763;48.370;10.874;2023-07-30T00:39:07;3.83;;;1.90;;
9449;SDS011;4763;48.370;10.874;2023-07-30T00:41:36;3.90;;;1.77;;
9449;SDS011;4763;48.370;10.874;2023-07-30T00:44:03;2.23;;;1.90;;
9449;SDS011;4763;48.370;10.874;2023-07-30T00:46:30;3.90;;;1.70;;
9449;SDS011;4763;48.370;10.874;2023-07-30T00:48:58;2.27;;;1.70;;
9449;SDS011;4763;48.370;10.874;2023-07-30T00:51:25;5.53;;;1.70;;
9449;SDS011;4763;48.370;10.874;2023-07-30T00:53:53;2.20;;;2.00;;
9449;SDS011;4763;48.370;10.874;2023-07-30T00:56:20;2.57;;;1.83;;
9449;SDS011;4763;48.370;10.874;2023-07-30T00:58:47;1.50;;;1.40;;
9449;SDS011;4763;48.370;10.874;2023-07-30T01:01:14;1.70;;;1.60;;
9449;SDS011;4763;48.370;10.874;2023-07-30T01:03:41;2.00;;;1.73;;
9449;SDS011;4763;48.370;10.874;2023-07-30T01:06:10;2.10;;;1.63;;
9449;SDS011;4763;48.370;10.874;2023-07-30T01:08:36;4.60;;;1.83;;
9449;SDS011;4763;48.370;10.874;2023-07-30T01:11:04;5.73;;;1.90;;
9449;SDS011;4763;48.370;10.874;2023-07-30T01:13:32;2.63;;;2.00;;
9449;SDS011;4763;48.370;10.874;2023-07-30T01:15:59;1.97;;;1.77;;
9449;SDS011;4763;48.370;10.874;2023-07-30T01:18:26;2.03;;;1.77;;
9449;SDS011;4763;48.370;10.874;2023-07-30T01:20:56;1.77;;;1.67;;
9449;SDS011;4763;48.370;10.874;2023-07-30T01:23:25;3.87;;;1.70;;
9449;SDS011;4763;48.370;10.874;2023-07-30T01:25:53;2.27;;;1.73;;
9449;SDS011;4763;48.370;10.874;2023-07-30T01:28:26;2.00;;;1.63;;
9449;SDS011;4763;48.370;10.874;2023-07-30T01:30:55;1.93;;;1.73;;
9449;SDS011;4763;48.370;10.874;2023-07-30T01:33:25;2.77;;;1.70;;
9449;SDS011;4763;48.370;10.874;2023-07-30T01:35:52;4.47;;;1.80;;
9449;SDS011;4763;48.370;10.874;2023-07-30T01:38:21;2.73;;;1.93;;
9449;SDS011;4763;48.370;10.874;2023-07-30T01:40:48;2.10;;;1.63;;
9449;SDS011;4763;48.370;10.874;2023-07-30T01:43:15;2.63;;;1.77;;
9449;SDS011;4763;48.370;10.874;2023-07-30T01:45:42;1.60;;;1.50;;
9449;SDS011;4763;48.370;10.874;2023-07-30T01:48:09;3.13;;;1.90;;
9449;SDS011;4763;48.370;10.874;2023-07-30T01:50:35;1.97;;;1.60;;
9449;SDS011;4763;48.370;10.874;2023-07-30T01:53:04;2.13;;;1.93;;
9449;SDS011;4763;48.370;10.874;2023-07-30T01:55:30;2.10;;;1.80;;
9449;SDS011;4763;48.370;10.874;2023-07-30T01:57:57;2.50;;;1.90;;
9449;SDS011;4763;48.370;10.874;2023-07-30T02:00:24;3.43;;;2.30;;
9449;SDS011;4763;48.370;10.874;2023-07-30T02:02:50;2.70;;;2.03;;
9449;SDS011;4763;48.370;10.874;2023-07-30T02:05:17;2.50;;;1.73;;
9449;SDS011;4763;48.370;10.874;2023-07-30T02:07:44;2.53;;;1.90;;
9449;SDS011;4763;48.370;10.874;2023-07-30T02:10:13;2.00;;;1.70;;
9449;SDS011;4763;48.370;10.874;2023-07-30T02:12:40;2.60;;;2.30;;
9449;SDS011;4763;48.370;10.874;2023-07-30T02:15:07;3.73;;;1.80;;
9449;SDS011;4763;48.370;10.874;2023-07-30T02:17:34;4.50;;;1.83;;
9449;SDS011;4763;48.370;10.874;2023-07-30T02:20:01;1.70;;;1.40;;
9449;SDS011;4763;48.370;10.874;2023-07-30T02:22:28;2.30;;;1.90;;
9449;SDS011;4763;48.370;10.874;2023-07-30T02:24:55;2.40;;;1.80;;
9449;SDS011;4763;48.370;10.874;2023-07-30T02:27:23;2.77;;;1.90;;
9449;SDS011;4763;48.370;10.874;2023-07-30T02:29:50;2.10;;;1.70;;
9449;SDS011;4763;48.370;10.874;2023-07-30T02:32:17;2.90;;;2.00;;
9449;SDS011;4763;48.370;10.874;2023-07-30T02:34:44;3.60;;;2.30;;
9449;SDS011;4763;48.370;10.874;2023-07-30T02:37:10;2.13;;;1.80;;
9449;SDS011;4763;48.370;10.874;2023-07-30T02:39:39;2.10;;;1.80;;
9449;SDS011;4763;48.370;10.874;2023-07-30T02:42:06;3.40;;;2.00;;
9449;SDS011;4763;48.370;10.874;2023-07-30T02:44:34;2.83;;;1.60;;
9449;SDS011;4763;48.370;10.874;2023-07-30T02:47:01;3.87;;;2.30;;
9449;SDS011;4763;48.370;10.874;2023-07-30T02:49:28;2.97;;;2.00;;
9449;SDS011;4763;48.370;10.874;2023-07-30T02:51:55;2.27;;;1.90;;
9449;SDS011;4763;48.370;10.874;2023-07-30T02:54:21;2.10;;;1.80;;
9449;SDS011;4763;48.370;10.874;2023-07-30T02:56:48;3.37;;;2.00;;
9449;SDS011;4763;48.370;10.874;2023-07-30T02:59:15;2.13;;;1.87;;
9449;SDS011;4763;48.370;10.874;2023-07-30T03:01:43;2.57;;;2.00;;
9449;SDS011;4763;48.370;10.874;2023-07-30T03:04:10;4.03;;;2.30;;
9449;SDS011;4763;48.370;10.874;2023-07-30T03:06:36;4.67;;;2.10;;
9449;SDS011;4763;48.370;10.874;2023-07-30T03:09:03;4.53;;;2.43;;
9449;SDS011;4763;48.370;10.874;2023-07-30T03:11:30;3.03;;;1.97;;
9449;SDS011;4763;48.370;10.874;2023-07-30T03:13:56;2.33;;;2.13;;
9449;SDS011;4763;48.370;10.874;2023-07-30T03:16:23;6.23;;;2.20;;
9449;SDS011;4763;48.370;10.874;2023-07-30T03:18:51;5.30;;;2.77;;
9449;SDS011;4763;48.370;10.874;2023-07-30T03:21:18;5.33;;;2.10;;
9449;SDS011;4763;48.370;10.874;2023-07-30T03:23:44;5.00;;;2.30;;
9449;SDS011;4763;48.370;10.874;2023-07-30T03:26:13;2.10;;;1.90;;
9449;SDS011;4763;48.370;10.874;2023-07-30T03:28:40;4.33;;;2.03;;
9449;SDS011;4763;48.370;10.874;2023-07-30T03:31:06;2.70;;;1.97;;
9449;SDS011;4763;48.370;10.874;2023-07-30T03:33:33;2.43;;;2.00;;
9449;SDS011;4763;48.370;10.874;2023-07-30T03:36:01;4.13;;;2.53;;
9449;SDS011;4763;48.370;10.874;2023-07-30T03:38:28;3.57;;;2.07;;
9449;SDS011;4763;48.370;10.874;2023-07-30T03:40:55;4.17;;;2.10;;
9449;SDS011;4763;48.370;10.874;2023-07-30T03:43:21;6.07;;;3.50;;
9449;SDS011;4763;48.370;10.874;2023-07-30T03:45:49;6.93;;;3.07;;
9449;SDS011;4763;48.370;10.874;2023-07-30T03:48:16;3.10;;;2.30;;
9449;SDS011;4763;48.370;10.874;2023-07-30T03:50:43;3.13;;;2.23;;
9449;SDS011;4763;48.370;10.874;2023-07-30T03:53:11;2.57;;;1.93;;
9449;SDS011;4763;48.370;10.874;2023-07-30T03:55:37;6.47;;;2.10;;
9449;SDS011;4763;48.370;10.874;2023-07-30T03:58:04;5.17;;;2.50;;
9449;SDS011;4763;48.370;10.874;2023-07-30T04:00:31;2.57;;;2.17;;
9449;SDS011;4763;48.370;10.874;2023-07-30T04:02:58;3.47;;;2.27;;
9449;SDS011;4763;48.370;10.874;2023-07-30T04:05:25;3.17;;;2.27;;
9449;SDS011;4763;48.370;10.874;2023-07-30T04:07:51;2.50;;;2.30;;
9449;SDS011;4763;48.370;10.874;2023-07-30T04:10:19;3.10;;;2.40;;
9449;SDS011;4763;48.370;10.874;2023-07-30T04:12:50;3.27;;;2.40;;
9449;SDS011;4763;48.370;10.874;2023-07-30T04:15:17;4.03;;;2.37;;
9449;SDS011;4763;48.370;10.874;2023-07-30T04:17:43;3.23;;;2.33;;
9449;SDS011;4763;48.370;10.874;2023-07-30T04:20:10;3.27;;;2.30;;
9449;SDS011;4763;48.370;10.874;2023-07-30T04:22:37;3.63;;;2.60;;
9449;SDS011;4763;48.370;10.874;2023-07-30T04:25:07;2.63;;;2.40;;
9449;SDS011;4763;48.370;10.874;2023-07-30T04:27:37;2.93;;;2.53;;
9449;SDS011;4763;48.370;10.874;2023-07-30T04:30:04;3.07;;;2.60;;
9449;SDS011;4763;48.370;10.874;2023-07-30T04:32:31;2.40;;;2.20;;
9449;SDS011;4763;48.370;10.874;2023-07-30T04:34:58;2.33;;;2.10;;
9449;SDS011;4763;48.370;10.874;2023-07-30T04:37:24;3.87;;;2.90;;
9449;SDS011;4763;48.370;10.874;2023-07-30T04:39:51;3.30;;;2.23;;
9449;SDS011;4763;48.370;10.874;2023-07-30T04:42:18;6.90;;;2.30;;
9449;SDS011;4763;48.370;10.874;2023-07-30T04:44:46;7.10;;;2.30;;
9449;SDS011;4763;48.370;10.874;2023-07-30T04:47:13;3.33;;;2.47;;
9449;SDS011;4763;48.370;10.874;2023-07-30T04:49:39;2.70;;;2.33;;
9449;SDS011;4763;48.370;10.874;2023-07-30T04:52:06;3.33;;;2.30;;
9449;SDS011;4763;48.370;10.874;2023-07-30T04:54:33;6.57;;;2.33;;
9449;SDS011;4763;48.370;10.874;2023-07-30T04:57:01;2.27;;;1.90;;
9449;SDS011;4763;48.370;10.874;2023-07-30T04:59:28;4.37;;;2.80;;
9449;SDS011;4763;48.370;10.874;2023-07-30T05:01:56;2.30;;;2.10;;
9449;SDS011;4763;48.370;10.874;2023-07-30T05:04:23;3.93;;;2.50;;
9449;SDS011;4763;48.370;10.874;2023-07-30T05:06:49;3.93;;;2.60;;
9449;SDS011;4763;48.370;10.874;2023-07-30T05:09:16;2.33;;;2.03;;
9449;SDS011;4763;48.370;10.874;2023-07-30T05:11:43;3.93;;;2.27;;
9449;SDS011;4763;48.370;10.874;2023-07-30T05:14:09;3.23;;;2.17;;
9449;SDS011;4763;48.370;10.874;2023-07-30T05:16:36;2.83;;;2.30;;
9449;SDS011;4763;48.370;10.874;2023-07-30T05:19:04;2.63;;;2.10;;
9449;SDS011;4763;48.370;10.874;2023-07-30T05:21:31;2.50;;;2.20;;
9449;SDS011;4763;48.370;10.874;2023-07-30T05:23:58;2.97;;;2.47;;
9449;SDS011;4763;48.370;10.874;2023-07-30T05:26:24;3.23;;;2.10;;
9449;SDS011;4763;48.370;10.874;2023-07-30T05:28:51;1.97;;;1.87;;
9449;SDS011;4763;48.370;10.874;2023-07-30T05:31:18;3.03;;;2.13;;
9449;SDS011;4763;48.370;10.874;2023-07-30T05:33:44;3.13;;;2.50;;
9449;SDS011;4763;48.370;10.874;2023-07-30T05:36:12;3.33;;;2.43;;
9449;SDS011;4763;48.370;10.874;2023-07-30T05:38:39;4.30;;;2.27;;
9449;SDS011;4763;48.370;10.874;2023-07-30T05:41:06;3.07;;;2.30;;
9449;SDS011;4763;48.370;10.874;2023-07-30T05:43:32;5.73;;;2.00;;
9449;SDS011;4763;48.370;10.874;2023-07-30T05:45:59;3.00;;;2.00;;
9449;SDS011;4763;48.370;10.874;2023-07-30T05:48:26;4.30;;;2.53;;
9449;SDS011;4763;48.370;10.874;2023-07-30T05:50:54;2.13;;;1.90;;
9449;SDS011;4763;48.370;10.874;2023-07-30T05:53:22;3.87;;;2.40;;
9449;SDS011;4763;48.370;10.874;2023-07-30T05:55:49;4.50;;;2.20;;
9449;SDS011;4763;48.370;10.874;2023-07-30T05:58:16;2.10;;;1.90;;
9449;SDS011;4763;48.370;10.874;2023-07-30T06:00:42;2.50;;;2.13;;
9449;SDS011;4763;48.370;10.874;2023-07-30T06:03:09;2.60;;;2.37;;
9449;SDS011;4763;48.370;10.874;2023-07-30T06:05:38;2.30;;;2.10;;
9449;SDS011;4763;48.370;10.874;2023-07-30T06:08:06;3.77;;;2.27;;
9449;SDS011;4763;48.370;10.874;2023-07-30T06:10:35;2.60;;;2.20;;
9449;SDS011;4763;48.370;10.874;2023-07-30T06:13:02;4.97;;;2.23;;
9449;SDS011;4763;48.370;10.874;2023-07-30T06:15:31;4.33;;;2.10;;
9449;SDS011;4763;48.370;10.874;2023-07-30T06:17:58;2.37;;;2.17;;
9449;SDS011;4763;48.370;10.874;2023-07-30T06:20:26;4.63;;;1.97;;
9449;SDS011;4763;48.370;10.874;2023-07-30T06:22:53;4.00;;;2.43;;
9449;SDS011;4763;48.370;10.874;2023-07-30T06:25:19;2.70;;;2.17;;
9449;SDS011;4763;48.370;10.874;2023-07-30T06:27:47;7.10;;;2.63;;
9449;SDS011;4763;48.370;10.874;2023-07-30T06:30:16;2.93;;;2.10;;
9449;SDS011;4763;48.370;10.874;2023-07-30T06:32:43;2.83;;;2.47;;
9449;SDS011;4763;48.370;10.874;2023-07-30T06:35:11;2.10;;;1.83;;
9449;SDS011;4763;48.370;10.874;2023-07-30T06:37:38;2.00;;;1.80;;
9449;SDS011;4763;48.370;10.874;2023-07-30T06:40:06;2.87;;;1.63;;
9449;SDS011;4763;48.370;10.874;2023-07-30T06:42:33;2.07;;;1.80;;
9449;SDS011;4763;48.370;10.874;2023-07-30T06:45:01;3.57;;;2.60;;
9449;SDS011;4763;48.370;10.874;2023-07-30T06:47:29;2.37;;;1.90;;
9449;SDS011;4763;48.370;10.874;2023-07-30T06:49:57;3.00;;;2.00;;
9449;SDS011;4763;48.370;10.874;2023-07-30T06:52:23;3.67;;;2.17;;
9449;SDS011;4763;48.370;10.874;2023-07-30T06:54:50;3.47;;;2.03;;
9449;SDS011;4763;48.370;10.874;2023-07-30T06:57:17;3.03;;;1.98;;
9449;SDS011;4763;48.370;10.874;2023-07-30T06:59:43;4.03;;;2.37;;
9449;SDS011;4763;48.370;10.874;2023-07-30T07:02:12;2.15;;;1.90;;
9449;SDS011;4763;48.370;10.874;2023-07-30T07:04:38;3.45;;;1.90;;
9449;SDS011;4763;48.370;10.874;2023-07-30T07:07:05;2.63;;;1.80;;
9449;SDS011;4763;48.370;10.874;2023-07-30T07:09:35;4.43;;;2.15;;
9449;SDS011;4763;48.370;10.874;2023-07-30T07:12:01;2.05;;;1.80;;
9449;SDS011;4763;48.370;10.874;2023-07-30T07:14:29;2.25;;;2.05;;
9449;SDS011;4763;48.370;10.874;2023-07-30T07:16:55;3.80;;;2.00;;
9449;SDS011;4763;48.370;10.874;2023-07-30T07:19:25;1.92;;;1.67;;
9449;SDS011;4763;48.370;10.874;2023-07-30T07:21:51;5.00;;;1.98;;
9449;SDS011;4763;48.370;10.874;2023-07-30T07:24:18;2.15;;;1.67;;
9449;SDS011;4763;48.370;10.874;2023-07-30T07:26:45;1.77;;;1.58;;
9449;SDS011;4763;48.370;10.874;2023-07-30T07:29:12;3.38;;;1.90;;
9449;SDS011;4763;48.370;10.874;2023-07-30T07:31:38;1.90;;;1.75;;
9449;SDS011;4763;48.370;10.874;2023-07-30T07:34:05;2.63;;;1.90;;
9449;SDS011;4763;48.370;10.874;2023-07-30T07:36:35;1.95;;;1.75;;
9449;SDS011;4763;48.370;10.874;2023-07-30T07:39:03;3.88;;;1.70;;
9449;SDS011;4763;48.370;10.874;2023-07-30T07:41:29;2.63;;;1.90;;
9449;SDS011;4763;48.370;10.874;2023-07-30T07:43:58;1.85;;;1.60;;
9449;SDS011;4763;48.370;10.874;2023-07-30T07:46:24;1.67;;;1.48;;
9449;SDS011;4763;48.370;10.874;2023-07-30T07:48:52;2.13;;;1.73;;
9449;SDS011;4763;48.370;10.874;2023-07-30T07:51:19;2.35;;;1.70;;
9449;SDS011;4763;48.370;10.874;2023-07-30T07:53:47;2.15;;;1.35;;
9449;SDS011;4763;48.370;10.874;2023-07-30T07:56:14;1.48;;;1.35;;
9449;SDS011;4763;48.370;10.874;2023-07-30T07:58:40;2.05;;;1.70;;
9449;SDS011;4763;48.370;10.874;2023-07-30T08:01:08;1.92;;;1.77;;
9449;SDS011;4763;48.370;10.874;2023-07-30T08:03:34;3.35;;;1.92;;
9449;SDS011;4763;48.370;10.874;2023-07-30T08:06:02;2.33;;;1.77;;
9449;SDS011;4763;48.370;10.874;2023-07-30T08:08:28;1.85;;;1.65;;
9449;SDS011;4763;48.370;10.874;2023-07-30T08:10:56;2.25;;;1.67;;
9449;SDS011;4763;48.370;10.874;2023-07-30T08:13:23;2.17;;;1.40;;
9449;SDS011;4763;48.370;10.874;2023-07-30T08:15:50;1.85;;;1.33;;
9449;SDS011;4763;48.370;10.874;2023-07-30T08:18:17;1.50;;;1.38;;
9449;SDS011;4763;48.370;10.874;2023-07-30T08:20:44;1.50;;;1.40;;
9449;SDS011;4763;48.370;10.874;2023-07-30T08:23:10;2.55;;;1.65;;
9449;SDS011;4763;48.370;10.874;2023-07-30T08:25:37;2.67;;;1.52;;
9449;SDS011;4763;48.370;10.874;2023-07-30T08:28:05;1.90;;;1.70;;
9449;SDS011;4763;48.370;10.874;2023-07-30T08:30:32;1.42;;;1.33;;
9449;SDS011;4763;48.370;10.874;2023-07-30T08:32:59;1.63;;;1.38;;
9449;SDS011;4763;48.370;10.874;2023-07-30T08:35:26;2.03;;;1.75;;
9449;SDS011;4763;48.370;10.874;2023-07-30T08:37:53;1.92;;;1.55;;
9449;SDS011;4763;48.370;10.874;2023-07-30T08:40:20;1.73;;;1.40;;
9449;SDS011;4763;48.370;10.874;2023-07-30T08:42:48;1.88;;;1.65;;
9449;SDS011;4763;48.370;10.874;2023-07-30T08:45:17;2.63;;;1.70;;
9449;SDS011;4763;48.370;10.874;2023-07-30T08:47:46;2.45;;;1.77;;
9449;SDS011;4763;48.370;10.874;2023-07-30T08:50:14;2.92;;;1.50;;
9449;SDS011;4763;48.370;10.874;2023-07-30T08:52:41;2.28;;;1.70;;
9449;SDS011;4763;48.370;10.874;2023-07-30T08:55:08;3.90;;;1.45;;
9449;SDS011;4763;48.370;10.874;2023-07-30T08:57:38;3.90;;;1.73;;
9449;SDS011;4763;48.370;10.874;2023-07-30T09:00:08;1.83;;;1.67;;
9449;SDS011;4763;48.370;10.874;2023-07-30T09:02:39;1.58;;;1.38;;
9449;SDS011;4763;48.370;10.874;2023-07-30T09:05:10;1.60;;;1.33;;
9449;SDS011;4763;48.370;10.874;2023-07-30T09:07:41;1.80;;;1.55;;
9449;SDS011;4763;48.370;10.874;2023-07-30T09:10:09;1.80;;;1.60;;
9449;SDS011;4763;48.370;10.874;2023-07-30T09:12:37;1.58;;;1.40;;
9449;SDS011;4763;48.370;10.874;2023-07-30T09:15:05;1.67;;;1.58;;
9449;SDS011;4763;48.370;10.874;2023-07-30T09:17:34;1.75;;;1.42;;
9449;SDS011;4763;48.370;10.874;2023-07-30T09:20:03;1.40;;;1.25;;
9449;SDS011;4763;48.370;10.874;2023-07-30T09:22:31;2.03;;;1.55;;
9449;SDS011;4763;48.370;10.874;2023-07-30T09:25:01;1.40;;;1.30;;
9449;SDS011;4763;48.370;10.874;2023-07-30T09:27:29;3.83;;;1.85;;
9449;SDS011;4763;48.370;10.874;2023-07-30T09:29:57;2.38;;;1.55;;
9449;SDS011;4763;48.370;10.874;2023-07-30T09:32:26;2.83;;;1.33;;
9449;SDS011;4763;48.370;10.874;2023-07-30T09:34:54;1.38;;;1.27;;
9449;SDS011;4763;48.370;10.874;2023-07-30T09:37:25;1.63;;;1.20;;
9449;SDS011;4763;48.370;10.874;2023-07-30T09:39:52;2.38;;;1.40;;
9449;SDS011;4763;48.370;10.874;2023-07-30T09:42:19;2.80;;;1.65;;
9449;SDS011;4763;48.370;10.874;2023-07-30T09:44:46;1.42;;;1.33;;
9449;SDS011;4763;48.370;10.874;2023-07-30T09:47:14;1.60;;;1.20;;
9449;SDS011;4763;48.370;10.874;2023-07-30T09:49:41;1.70;;;1.30;;
9449;SDS011;4763;48.370;10.874;2023-07-30T09:52:10;2.38;;;1.50;;
9449;SDS011;4763;48.370;10.874;2023-07-30T09:54:41;1.73;;;1.27;;
9449;SDS011;4763;48.370;10.874;2023-07-30T09:57:18;1.70;;;1.30;;
9449;SDS011;4763;48.370;10.874;2023-07-30T09:59:47;3.17;;;1.60;;
9449;SDS011;4763;48.370;10.874;2023-07-30T10:02:15;1.60;;;1.50;;
9449;SDS011;4763;48.370;10.874;2023-07-30T10:04:44;1.77;;;1.48;;
9449;SDS011;4763;48.370;10.874;2023-07-30T10:07:14;1.98;;;1.65;;
9449;SDS011;4763;48.370;10.874;2023-07-30T10:09:46;3.70;;;1.50;;
9449;SDS011;4763;48.370;10.874;2023-07-30T10:12:18;2.03;;;1.20;;
9449;SDS011;4763;48.370;10.874;2023-07-30T10:14:48;2.97;;;2.08;;
9449;SDS011;4763;48.370;10.874;2023-07-30T10:17:18;1.35;;;1.20;;
9449;SDS011;4763;48.370;10.874;2023-07-30T10:19:46;3.17;;;1.20;;
9449;SDS011;4763;48.370;10.874;2023-07-30T10:22:20;3.83;;;1.52;;
9449;SDS011;4763;48.370;10.874;2023-07-30T10:24:57;2.30;;;1.30;;
9449;SDS011;4763;48.370;10.874;2023-07-30T10:27:25;3.03;;;1.30;;
9449;SDS011;4763;48.370;10.874;2023-07-30T10:30:08;2.10;;;1.75;;
9449;SDS011;4763;48.370;10.874;2023-07-30T10:32:39;2.30;;;1.48;;
9449;SDS011;4763;48.370;10.874;2023-07-30T10:35:09;1.52;;;1.40;;
9449;SDS011;4763;48.370;10.874;2023-07-30T10:38:14;2.58;;;1.20;;
9449;SDS011;4763;48.370;10.874;2023-07-30T10:40:43;1.50;;;1.25;;
9449;SDS011;4763;48.370;10.874;2023-07-30T10:43:27;5.78;;;1.65;;
9449;SDS011;4763;48.370;10.874;2023-07-30T10:45:54;1.65;;;1.35;;
9449;SDS011;4763;48.370;10.874;2023-07-30T10:48:29;1.40;;;1.27;;
9449;SDS011;4763;48.370;10.874;2023-07-30T10:50:56;1.80;;;1.00;;
9449;SDS011;4763;48.370;10.874;2023-07-30T10:53:23;1.38;;;1.20;;
9449;SDS011;4763;48.370;10.874;2023-07-30T10:55:53;2.42;;;1.98;;
9449;SDS011;4763;48.370;10.874;2023-07-30T10:58:24;2.70;;;1.88;;
9449;SDS011;4763;48.370;10.874;2023-07-30T11:00:51;3.40;;;2.60;;
9449;SDS011;4763;48.370;10.874;2023-07-30T11:03:18;3.20;;;1.65;;
9449;SDS011;4763;48.370;10.874;2023-07-30T11:05:46;3.38;;;1.50;;
9449;SDS011;4763;48.370;10.874;2023-07-30T11:08:13;5.43;;;2.38;;
9449;SDS011;4763;48.370;10.874;2023-07-30T11:10:43;2.17;;;1.67;;
9449;SDS011;4763;48.370;10.874;2023-07-30T11:13:15;1.42;;;1.27;;
9449;SDS011;4763;48.370;10.874;2023-07-30T11:15:42;1.88;;;1.40;;
9449;SDS011;4763;48.370;10.874;2023-07-30T11:18:11;2.25;;;1.42;;
9449;SDS011;4763;48.370;10.874;2023-07-30T11:20:39;1.38;;;1.20;;
9449;SDS011;4763;48.370;10.874;2023-07-30T11:23:19;3.13;;;1.52;;
9449;SDS011;4763;48.370;10.874;2023-07-30T11:25:47;2.33;;;1.63;;
9449;SDS011;4763;48.370;10.874;2023-07-30T11:28:16;3.25;;;1.30;;
9449;SDS011;4763;48.370;10.874;2023-07-30T11:30:54;2.65;;;1.20;;
9449;SDS011;4763;48.370;10.874;2023-07-30T11:33:28;1.55;;;1.20;;
9449;SDS011;4763;48.370;10.874;2023-07-30T11:36:00;1.70;;;1.20;;
9449;SDS011;4763;48.370;10.874;2023-07-30T11:38:31;2.15;;;1.30;;
9449;SDS011;4763;48.370;10.874;2023-07-30T11:40:58;2.03;;;1.27;;
9449;SDS011;4763;48.370;10.874;2023-07-30T11:43:31;1.50;;;1.35;;
9449;SDS011;4763;48.370;10.874;2023-07-30T11:46:11;6.25;;;3.38;;
9449;SDS011;4763;48.370;10.874;2023-07-30T11:48:42;5.80;;;3.28;;
9449;SDS011;4763;48.370;10.874;2023-07-30T11:51:21;2.28;;;2.05;;
9449;SDS011;4763;48.370;10.874;2023-07-30T11:53:51;2.00;;;1.40;;
9449;SDS011;4763;48.370;10.874;2023-07-30T11:56:21;2.38;;;1.60;;
9449;SDS011;4763;48.370;10.874;2023-07-30T11:58:53;3.17;;;1.45;;
9449;SDS011;4763;48.370;10.874;2023-07-30T12:01:22;1.48;;;1.17;;
9449;SDS011;4763;48.370;10.874;2023-07-30T12:03:50;1.77;;;1.30;;
9449;SDS011;4763;48.370;10.874;2023-07-30T12:06:19;1.48;;;1.30;;
9449;SDS011;4763;48.370;10.874;2023-07-30T12:08:48;1.77;;;1.40;;
9449;SDS011;4763;48.370;10.874;2023-07-30T12:11:14;1.77;;;1.48;;
9449;SDS011;4763;48.370;10.874;2023-07-30T12:13:44;3.63;;;1.70;;
9449;SDS011;4763;48.370;10.874;2023-07-30T12:16:13;1.70;;;1.55;;
9449;SDS011;4763;48.370;10.874;2023-07-30T12:18:40;1.50;;;1.40;;
9449;SDS011;4763;48.370;10.874;2023-07-30T12:21:07;2.45;;;1.63;;
9449;SDS011;4763;48.370;10.874;2023-07-30T12:23:36;2.15;;;1.50;;
9449;SDS011;4763;48.370;10.874;2023-07-30T12:26:03;2.08;;;1.40;;
9449;SDS011;4763;48.370;10.874;2023-07-30T12:28:30;2.58;;;1.85;;
9449;SDS011;4763;48.370;10.874;2023-07-30T12:30:57;1.88;;;1.35;;
9449;SDS011;4763;48.370;10.874;2023-07-30T12:33:26;3.05;;;1.80;;
9449;SDS011;4763;48.370;10.874;2023-07-30T12:35:53;1.75;;;1.42;;
9449;SDS011;4763;48.370;10.874;2023-07-30T12:38:19;4.53;;;1.40;;
9449;SDS011;4763;48.370;10.874;2023-07-30T12:40:48;1.80;;;1.50;;
9449;SDS011;4763;48.370;10.874;2023-07-30T12:43:15;5.10;;;1.70;;
9449;SDS011;4763;48.370;10.874;2023-07-30T12:45:44;3.80;;;1.42;;
9449;SDS011;4763;48.370;10.874;2023-07-30T12:48:10;1.60;;;1.40;;
9449;SDS011;4763;48.370;10.874;2023-07-30T12:50:39;1.85;;;1.30;;
9449;SDS011;4763;48.370;10.874;2023-07-30T12:53:05;2.17;;;1.27;;
9449;SDS011;4763;48.370;10.874;2023-07-30T12:55:32;2.53;;;1.55;;
9449;SDS011;4763;48.370;10.874;2023-07-30T12:57:59;2.55;;;1.40;;
9449;SDS011;4763;48.370;10.874;2023-07-30T13:00:25;2.80;;;1.95;;
9449;SDS011;4763;48.370;10.874;2023-07-30T13:02:52;1.58;;;1.33;;
9449;SDS011;4763;48.370;10.874;2023-07-30T13:05:22;1.80;;;1.38;;
9449;SDS011;4763;48.370;10.874;2023-07-30T13:07:50;2.63;;;1.42;;
9449;SDS011;4763;48.370;10.874;2023-07-30T13:10:17;1.55;;;1.20;;
9449;SDS011;4763;48.370;10.874;2023-07-30T13:12:44;4.40;;;1.63;;
9449;SDS011;4763;48.370;10.874;2023-07-30T13:15:10;6.07;;;1.48;;
9449;SDS011;4763;48.370;10.874;2023-07-30T13:17:37;5.90;;;1.50;;
9449;SDS011;4763;48.370;10.874;2023-07-30T13:20:04;5.80;;;1.50;;
9449;SDS011;4763;48.370;10.874;2023-07-30T13:22:32;2.30;;;1.30;;
9449;SDS011;4763;48.370;10.874;2023-07-30T13:25:03;1.33;;;1.23;;
9449;SDS011;4763;48.370;10.874;2023-07-30T13:27:30;1.40;;;1.30;;
9449;SDS011;4763;48.370;10.874;2023-07-30T13:29:57;3.42;;;1.30;;
9449;SDS011;4763;48.370;10.874;2023-07-30T13:32:26;1.40;;;1.30;;
9449;SDS011;4763;48.370;10.874;2023-07-30T13:34:54;2.83;;;1.20;;
9449;SDS011;4763;48.370;10.874;2023-07-30T13:37:21;1.73;;;1.38;;
9449;SDS011;4763;48.370;10.874;2023-07-30T13:39:48;1.20;;;1.10;;
9449;SDS011;4763;48.370;10.874;2023-07-30T13:42:16;1.50;;;1.38;;
9449;SDS011;4763;48.370;10.874;2023-07-30T13:44:43;2.42;;;1.58;;
9449;SDS011;4763;48.370;10.874;2023-07-30T13:47:09;3.97;;;1.52;;
9449;SDS011;4763;48.370;10.874;2023-07-30T13:49:36;1.40;;;1.23;;
9449;SDS011;4763;48.370;10.874;2023-07-30T13:52:03;1.55;;;1.33;;
9449;SDS011;4763;48.370;10.874;2023-07-30T13:54:30;1.20;;;1.10;;
9449;SDS011;4763;48.370;10.874;2023-07-30T13:56:57;1.35;;;1.23;;
9449;SDS011;4763;48.370;10.874;2023-07-30T13:59:25;1.17;;;1.08;;
9449;SDS011;4763;48.370;10.874;2023-07-30T14:01:52;2.25;;;1.45;;
9449;SDS011;4763;48.370;10.874;2023-07-30T14:04:20;1.52;;;1.42;;
9449;SDS011;4763;48.370;10.874;2023-07-30T14:06:47;1.95;;;1.65;;
9449;SDS011;4763;48.370;10.874;2023-07-30T14:09:14;2.13;;;1.70;;
9449;SDS011;4763;48.370;10.874;2023-07-30T14:11:41;1.88;;;1.55;;
9449;SDS011;4763;48.370;10.874;2023-07-30T14:14:11;1.92;;;1.35;;
9449;SDS011;4763;48.370;10.874;2023-07-30T14:16:39;2.15;;;1.52;;
9449;SDS011;4763;48.370;10.874;2023-07-30T14:19:06;1.42;;;1.30;;
9449;SDS011;4763;48.370;10.874;2023-07-30T14:21:33;2.83;;;1.70;;
9449;SDS011;4763;48.370;10.874;2023-07-30T14:24:00;2.28;;;1.58;;
9449;SDS011;4763;48.370;10.874;2023-07-30T14:26:26;1.75;;;1.30;;
9449;SDS011;4763;48.370;10.874;2023-07-30T14:28:53;2.50;;;1.35;;
9449;SDS011;4763;48.370;10.874;2023-07-30T14:31:20;1.85;;;1.42;;
9449;SDS011;4763;48.370;10.874;2023-07-30T14:33:48;1.58;;;1.17;;
9449;SDS011;4763;48.370;10.874;2023-07-30T14:36:15;5.75;;;1.60;;
9449;SDS011;4763;48.370;10.874;2023-07-30T14:38:41;1.58;;;1.27;;
9449;SDS011;4763;48.370;10.874;2023-07-30T14:41:08;3.20;;;1.50;;
9449;SDS011;4763;48.370;10.874;2023-07-30T14:43:36;1.98;;;1.70;;
9449;SDS011;4763;48.370;10.874;2023-07-30T14:46:03;4.50;;;1.48;;
9449;SDS011;4763;48.370;10.874;2023-07-30T14:48:29;2.38;;;1.75;;
9449;SDS011;4763;48.370;10.874;2023-07-30T14:50:57;3.10;;;1.38;;
9449;SDS011;4763;48.370;10.874;2023-07-30T14:53:24;1.35;;;1.25;;
9449;SDS011;4763;48.370;10.874;2023-07-30T14:55:51;1.40;;;1.30;;
9449;SDS011;4763;48.370;10.874;2023-07-30T14:58:18;1.98;;;1.77;;
9449;SDS011;4763;48.370;10.874;2023-07-30T15:00:45;1.75;;;1.45;;
9449;SDS011;4763;48.370;10.874;2023-07-30T15:03:11;1.83;;;1.50;;
9449;SDS011;4763;48.370;10.874;2023-07-30T15:05:38;2.05;;;1.30;;